Time;durP1;ratioP1;P1;durP2;ratioP2;P2;SDS_P1;SDS_P2;PMS_P1;PMS_P2;Temp;Humidity;BMP_temperature;BMP_pressure;BME280_temperature;BME280_humidity;BME280_pressure;Samples;Min_cycle;Max_cycle;Signal;HPM_P1;HPM_P2
2021/03/24 00:02:16;;;;;;;;;;;1.30;98.00;;;;;;5083774;28;19974;-69
2021/03/24 00:04:41;;;;;;;;;;;1.40;98.00;;;;;;5077558;28;19962;-68
2021/03/24 00:07:07;;;;;;;;;;;1.30;98.00;;;;;;5086228;28;19955;-70
2021/03/24 00:09:32;;;;;;;;;;;1.40;98.00;;;;;;5089629;28;19948;-68
2021/03/24 00:11:58;;;;;;;;;;;1.50;98.00;;;;;;5092519;28;19946;-68
2021/03/24 00:14:23;;;;;;;;;;;1.60;98.00;;;;;;5081692;28;19913;-69
2021/03/24 00:16:49;;;;;;;;;;;1.50;97.80;;;;;;5076072;28;19909;-69
2021/03/24 00:19:15;;;;;;;;;;;1.50;97.80;;;;;;5090968;28;19912;-69
2021/03/24 00:21:40;;;;;;;;;;;1.50;97.70;;;;;;5085176;28;19920;-70
2021/03/24 00:24:06;;;;;;;;;;;1.50;97.70;;;;;;5090755;28;19916;-69
2021/03/24 00:26:32;;;;;;;;;;;1.40;97.80;;;;;;5080895;28;19912;-70
2021/03/24 00:28:58;;;;;;;;;;;1.40;97.70;;;;;;5064960;28;19919;-70
2021/03/24 00:31:23;;;;;;;;;;;1.50;98.00;;;;;;5067159;28;19920;-69
2021/03/24 00:33:49;;;;;;;;;;;1.50;97.70;;;;;;5080107;28;19912;-69
2021/03/24 00:36:14;;;;;;;;;;;1.60;97.40;;;;;;5075763;28;19915;-69
2021/03/24 00:38:40;;;;;;;;;;;1.60;97.40;;;;;;5079027;28;20007;-69
2021/03/24 00:41:06;;;;;;;;;;;1.70;97.30;;;;;;5075943;28;19916;-69
2021/03/24 00:43:31;;;;;;;;;;;1.70;97.00;;;;;;5077312;28;19958;-70
2021/03/24 00:45:57;;;;;;;;;;;1.70;96.90;;;;;;5078178;28;20008;-69
2021/03/24 00:48:27;;;;;;;;;;;1.70;96.90;;;;;;5072415;28;20247;-68
2021/03/24 00:50:53;;;;;;;;;;;1.80;96.70;;;;;;5059270;28;19929;-70
2021/03/24 00:53:19;;;;;;;;;;;1.80;96.60;;;;;;5074700;28;20015;-69
2021/03/24 00:55:45;;;;;;;;;;;1.70;96.60;;;;;;5067505;28;20016;-68
2021/03/24 00:58:11;;;;;;;;;;;1.70;96.70;;;;;;5084510;28;20325;-69
2021/03/24 01:00:40;;;;;;;;;;;1.70;96.70;;;;;;5094044;28;19916;-70
2021/03/24 01:03:06;;;;;;;;;;;1.70;96.60;;;;;;5077211;28;19957;-68
2021/03/24 01:05:32;;;;;;;;;;;1.60;96.70;;;;;;5095058;28;19912;-69
2021/03/24 01:08:01;;;;;;;;;;;1.60;96.80;;;;;;5089921;28;19924;-69
2021/03/24 01:10:29;;;;;;;;;;;1.50;96.90;;;;;;5079529;28;19931;-68
2021/03/24 01:12:55;;;;;;;;;;;1.60;96.90;;;;;;5099679;28;19912;-68
2021/03/24 01:15:21;;;;;;;;;;;1.50;96.90;;;;;;5091462;28;19912;-70
2021/03/24 01:17:46;;;;;;;;;;;1.50;97.00;;;;;;5092466;28;20638;-69
2021/03/24 01:20:13;;;;;;;;;;;1.40;97.10;;;;;;5079699;28;20047;-70
2021/03/24 01:22:41;;;;;;;;;;;1.40;97.10;;;;;;5062363;28;19916;-70
2021/03/24 01:25:07;;;;;;;;;;;1.40;97.10;;;;;;5077536;28;20312;-70
2021/03/24 01:27:33;;;;;;;;;;;1.60;97.00;;;;;;5080270;28;19919;-70
2021/03/24 01:29:59;;;;;;;;;;;1.50;96.80;;;;;;5080159;28;19938;-70
2021/03/24 01:32:24;;;;;;;;;;;1.30;97.00;;;;;;5092243;28;19920;-70
2021/03/24 01:34:50;;;;;;;;;;;1.20;97.20;;;;;;5088375;28;19919;-70
2021/03/24 01:37:15;;;;;;;;;;;1.20;97.30;;;;;;5082127;28;19919;-69
2021/03/24 01:39:41;;;;;;;;;;;1.10;97.50;;;;;;5096045;28;20589;-69
2021/03/24 01:42:08;;;;;;;;;;;0.90;97.60;;;;;;5084508;28;20362;-69
2021/03/24 01:44:53;;;;;;;;;;;0.70;97.40;;;;;;5084846;28;19912;-69
2021/03/24 01:47:18;;;;;;;;;;;0.50;97.80;;;;;;5080714;28;19958;-70
2021/03/24 01:49:44;;;;;;;;;;;0.30;97.60;;;;;;5078500;28;19920;-70
2021/03/24 01:52:10;;;;;;;;;;;0.10;98.00;;;;;;5089380;28;19912;-69
2021/03/24 01:54:39;;;;;;;;;;;0.00;97.70;;;;;;5094567;28;19919;-68
2021/03/24 01:57:11;;;;;;;;;;;0.00;97.80;;;;;;5095767;28;20002;-69
2021/03/24 01:59:37;;;;;;;;;;;-0.10;97.90;;;;;;5066451;28;20232;-70
2021/03/24 02:02:06;;;;;;;;;;;-0.10;98.00;;;;;;5080608;28;19912;-68
2021/03/24 02:04:32;;;;;;;;;;;-0.20;97.90;;;;;;5091299;28;19923;-69
2021/03/24 02:07:16;;;;;;;;;;;-0.20;98.00;;;;;;5098624;28;19909;-69
2021/03/24 02:09:49;;;;;;;;;;;-0.30;98.00;;;;;;5097407;28;19986;-69
2021/03/24 02:12:28;;;;;;;;;;;-0.50;97.90;;;;;;5083129;28;20325;-70
2021/03/24 02:14:59;;;;;;;;;;;-0.60;97.70;;;;;;5060631;28;19947;-68
2021/03/24 02:17:29;;;;;;;;;;;-0.70;97.70;;;;;;5089307;28;19923;-69
2021/03/24 02:20:08;;;;;;;;;;;-0.70;98.00;;;;;;5096591;28;19923;-70
2021/03/24 02:22:37;;;;;;;;;;;-0.80;97.70;;;;;;5098067;28;20056;-70
2021/03/24 02:25:06;;;;;;;;;;;-0.70;97.80;;;;;;5088937;28;20220;-70
2021/03/24 02:27:33;;;;;;;;;;;-0.70;97.60;;;;;;5059961;28;19908;-69
2021/03/24 02:30:08;;;;;;;;;;;-0.60;97.60;;;;;;5077962;28;19908;-68
2021/03/24 02:32:35;;;;;;;;;;;-0.50;98.00;;;;;;5077960;28;19909;-69
2021/03/24 02:35:03;;;;;;;;;;;-0.40;98.00;;;;;;5077928;28;19912;-69
2021/03/24 02:37:38;;;;;;;;;;;-0.30;98.00;;;;;;5077540;28;19916;-68
2021/03/24 02:40:09;;;;;;;;;;;-0.30;98.00;;;;;;5082309;28;19959;-69
2021/03/24 02:42:35;;;;;;;;;;;-0.40;97.80;;;;;;5074843;28;20209;-68
2021/03/24 02:45:02;;;;;;;;;;;-0.30;98.00;;;;;;5069430;28;20007;-68
2021/03/24 02:47:27;;;;;;;;;;;-0.30;98.00;;;;;;5075936;28;19920;-68
2021/03/24 02:49:53;;;;;;;;;;;-0.10;98.00;;;;;;5065699;28;19924;-69
2021/03/24 02:52:18;;;;;;;;;;;-0.10;98.00;;;;;;5090759;28;19923;-69
2021/03/24 02:54:45;;;;;;;;;;;-0.10;98.00;;;;;;5096319;28;19919;-68
2021/03/24 02:57:10;;;;;;;;;;;-0.10;98.00;;;;;;5097535;28;19908;-67
2021/03/24 02:59:36;;;;;;;;;;;0.00;98.00;;;;;;5097424;28;19912;-68
2021/03/24 03:02:04;;;;;;;;;;;0.10;98.00;;;;;;5097332;28;19919;-68
2021/03/24 03:04:33;;;;;;;;;;;0.10;98.00;;;;;;5079199;28;19994;-67
2021/03/24 03:06:59;;;;;;;;;;;-0.10;98.00;;;;;;5078601;28;19942;-69
2021/03/24 03:09:25;;;;;;;;;;;-0.30;98.00;;;;;;5095623;28;20304;-69
2021/03/24 03:12:20;;;;;;;;;;;-0.50;98.00;;;;;;5090437;28;19954;-70
2021/03/24 03:14:51;;;;;;;;;;;-0.70;98.00;;;;;;5065614;28;19912;-69
2021/03/24 03:17:23;;;;;;;;;;;-0.90;98.00;;;;;;5096207;28;19962;-69
2021/03/24 03:19:51;;;;;;;;;;;-1.00;98.00;;;;;;5080552;28;19912;-68
2021/03/24 03:22:19;;;;;;;;;;;-1.20;97.70;;;;;;5076656;28;19913;-69
2021/03/24 03:24:47;;;;;;;;;;;-1.20;97.80;;;;;;5075409;28;19912;-68
2021/03/24 03:27:14;;;;;;;;;;;-1.20;97.90;;;;;;5076843;28;20319;-67
2021/03/24 03:29:41;;;;;;;;;;;-1.30;98.00;;;;;;5078008;28;19982;-68
2021/03/24 03:32:07;;;;;;;;;;;-1.40;97.90;;;;;;5076693;28;19913;-67
2021/03/24 03:34:34;;;;;;;;;;;-1.50;97.80;;;;;;5076582;28;19915;-68
2021/03/24 03:37:00;;;;;;;;;;;-1.50;97.90;;;;;;5077378;28;19913;-67
2021/03/24 03:39:26;;;;;;;;;;;-1.60;98.00;;;;;;5057392;28;19908;-69
2021/03/24 03:41:54;;;;;;;;;;;-1.70;98.00;;;;;;5076691;28;19920;-67
2021/03/24 03:44:20;;;;;;;;;;;-1.80;98.00;;;;;;5076425;28;19938;-68
2021/03/24 03:46:46;;;;;;;;;;;-2.00;97.70;;;;;;5058901;28;19917;-69
2021/03/24 03:49:12;;;;;;;;;;;-2.00;97.80;;;;;;5076287;28;19928;-67
2021/03/24 03:51:50;;;;;;;;;;;-2.10;98.00;;;;;;5076138;28;19920;-67
2021/03/24 03:54:33;;;;;;;;;;;-2.10;97.90;;;;;;5074944;28;19938;-67
2021/03/24 03:57:16;;;;;;;;;;;-2.20;98.00;;;;;;5076243;28;20049;-68
2021/03/24 03:59:44;;;;;;;;;;;-2.30;98.00;;;;;;5068832;28;20309;-67
2021/03/24 04:02:12;;;;;;;;;;;-2.40;98.00;;;;;;5058304;28;19912;-67
2021/03/24 04:04:43;;;;;;;;;;;-2.50;98.00;;;;;;5076091;28;20313;-67
2021/03/24 04:07:11;;;;;;;;;;;-2.60;98.00;;;;;;5075989;28;19916;-67
2021/03/24 04:09:38;;;;;;;;;;;-2.60;97.80;;;;;;5078317;28;19919;-69
2021/03/24 04:12:04;;;;;;;;;;;-2.40;96.90;;;;;;5095272;28;19918;-69
2021/03/24 04:14:30;;;;;;;;;;;-2.10;97.50;;;;;;5095541;28;19912;-69
2021/03/24 04:16:55;;;;;;;;;;;-1.90;97.70;;;;;;5096136;28;19915;-68
2021/03/24 04:19:23;;;;;;;;;;;-1.90;97.60;;;;;;5095905;28;19916;-68
2021/03/24 04:21:50;;;;;;;;;;;-1.80;97.50;;;;;;5078179;28;20260;-69
2021/03/24 04:24:27;;;;;;;;;;;-1.80;97.60;;;;;;5094614;28;19974;-69
2021/03/24 04:26:55;;;;;;;;;;;-1.90;97.90;;;;;;5095909;28;20223;-68
2021/03/24 04:29:27;;;;;;;;;;;-1.80;97.50;;;;;;5095897;28;19908;-68
2021/03/24 04:31:54;;;;;;;;;;;-1.70;97.70;;;;;;5077991;28;20271;-68
2021/03/24 04:34:21;;;;;;;;;;;-1.60;97.60;;;;;;5093188;28;19920;-68
2021/03/24 04:36:53;;;;;;;;;;;-1.50;97.60;;;;;;5072805;28;19923;-68
2021/03/24 04:39:24;;;;;;;;;;;-1.40;97.80;;;;;;5089873;28;19912;-68
2021/03/24 04:41:51;;;;;;;;;;;-1.50;98.00;;;;;;5082165;28;19912;-67
2021/03/24 04:44:25;;;;;;;;;;;-1.60;97.90;;;;;;5082261;28;19912;-67
2021/03/24 04:46:53;;;;;;;;;;;-1.60;97.70;;;;;;5082204;28;19909;-69
2021/03/24 04:49:20;;;;;;;;;;;-1.70;97.70;;;;;;5082113;28;19928;-67
2021/03/24 04:51:46;;;;;;;;;;;-1.70;97.80;;;;;;5082003;28;20004;-69
2021/03/24 04:54:15;;;;;;;;;;;-1.70;97.80;;;;;;5086826;28;19919;-69
2021/03/24 04:56:42;;;;;;;;;;;-1.60;97.70;;;;;;5107686;28;19957;-68
2021/03/24 04:59:09;;;;;;;;;;;-1.60;97.80;;;;;;5095556;28;19912;-67
2021/03/24 05:01:35;;;;;;;;;;;-1.40;97.20;;;;;;5066357;28;19916;-69
2021/03/24 05:04:05;;;;;;;;;;;-1.10;97.80;;;;;;5089428;28;19946;-67
2021/03/24 05:06:34;;;;;;;;;;;-1.00;97.80;;;;;;5102644;28;19939;-68
2021/03/24 05:09:00;;;;;;;;;;;-0.90;98.00;;;;;;5096728;28;19924;-69
2021/03/24 05:11:31;;;;;;;;;;;-1.10;98.00;;;;;;5082592;28;19920;-69
2021/03/24 05:13:59;;;;;;;;;;;-1.20;98.00;;;;;;5081922;28;19920;-68
2021/03/24 05:16:30;;;;;;;;;;;-1.00;98.00;;;;;;5089752;28;19913;-68
2021/03/24 05:18:56;;;;;;;;;;;-0.90;98.00;;;;;;5094163;28;20293;-67
2021/03/24 05:21:41;;;;;;;;;;;-0.80;98.00;;;;;;5095709;28;20285;-68
2021/03/24 05:24:06;;;;;;;;;;;-0.80;98.00;;;;;;5093262;28;19921;-68
2021/03/24 05:26:35;;;;;;;;;;;-0.80;98.00;;;;;;5092011;28;20075;-69
2021/03/24 05:29:03;;;;;;;;;;;-0.90;98.00;;;;;;5087803;28;19966;-67
2021/03/24 05:31:38;;;;;;;;;;;-1.00;98.00;;;;;;5069035;28;19924;-68
2021/03/24 05:34:07;;;;;;;;;;;-1.10;98.00;;;;;;5090351;28;20013;-67
2021/03/24 05:36:32;;;;;;;;;;;-1.40;98.00;;;;;;5089708;28;20217;-69
2021/03/24 05:39:08;;;;;;;;;;;-1.50;98.00;;;;;;5096998;28;19908;-67
2021/03/24 05:41:49;;;;;;;;;;;-1.60;98.00;;;;;;5091597;28;20007;-68
2021/03/24 05:44:30;;;;;;;;;;;-1.70;98.00;;;;;;5087257;28;20011;-67
2021/03/24 05:46:56;;;;;;;;;;;-1.70;98.00;;;;;;5072422;28;20005;-67
2021/03/24 05:49:39;;;;;;;;;;;-1.60;97.90;;;;;;5094545;28;20383;-66
2021/03/24 05:52:16;;;;;;;;;;;-1.70;98.00;;;;;;5097108;28;20301;-68
2021/03/24 05:54:42;;;;;;;;;;;-1.70;98.00;;;;;;5097752;28;20319;-68
2021/03/24 05:57:26;;;;;;;;;;;-1.60;97.80;;;;;;5098383;28;19908;-67
2021/03/24 06:00:07;;;;;;;;;;;-1.50;98.00;;;;;;5086511;28;19916;-67
2021/03/24 06:02:38;;;;;;;;;;;-1.50;97.90;;;;;;5089273;28;19912;-67
2021/03/24 06:05:09;;;;;;;;;;;-1.40;98.00;;;;;;5082639;28;19923;-65
2021/03/24 06:08:05;;;;;;;;;;;-1.20;97.90;;;;;;5085950;28;19982;-66
2021/03/24 06:10:50;;;;;;;;;;;-1.10;98.00;;;;;;5055043;28;19912;-66
2021/03/24 06:13:39;;;;;;;;;;;-1.10;98.00;;;;;;5062150;28;20003;-67
2021/03/24 06:16:05;;;;;;;;;;;-1.00;97.80;;;;;;5098522;28;19908;-66
2021/03/24 06:18:36;;;;;;;;;;;-0.80;98.00;;;;;;5098312;28;19961;-65
2021/03/24 06:21:05;;;;;;;;;;;-0.70;98.00;;;;;;5098431;28;19908;-68
2021/03/24 06:23:49;;;;;;;;;;;-0.70;97.80;;;;;;5097011;28;19931;-67
2021/03/24 06:26:24;;;;;;;;;;;-0.50;98.00;;;;;;5080548;28;20391;-67
2021/03/24 06:29:08;;;;;;;;;;;-0.50;98.00;;;;;;5095081;28;19915;-67
2021/03/24 06:31:52;;;;;;;;;;;-0.30;98.00;;;;;;5077962;28;19912;-66
2021/03/24 06:34:31;;;;;;;;;;;-0.10;98.00;;;;;;5077950;28;19932;-66
2021/03/24 06:37:15;;;;;;;;;;;0.10;98.00;;;;;;5094207;28;19916;-68
2021/03/24 06:40:06;;;;;;;;;;;0.20;98.00;;;;;;5079792;28;19912;-67
2021/03/24 06:42:32;;;;;;;;;;;0.30;98.00;;;;;;5044372;28;19921;-68
2021/03/24 06:45:06;;;;;;;;;;;0.30;98.00;;;;;;5077580;28;19909;-67
2021/03/24 06:47:45;;;;;;;;;;;0.40;98.00;;;;;;5077482;28;20353;-67
2021/03/24 06:50:10;;;;;;;;;;;0.50;98.00;;;;;;5077423;28;20205;-67
2021/03/24 06:52:48;;;;;;;;;;;0.70;98.00;;;;;;5077545;28;19926;-67
2021/03/24 06:55:32;;;;;;;;;;;0.80;98.00;;;;;;5063463;28;20296;-66
2021/03/24 06:58:16;;;;;;;;;;;0.90;98.00;;;;;;5096928;28;19920;-66
2021/03/24 07:01:00;;;;;;;;;;;1.00;98.00;;;;;;5091874;28;20266;-66
2021/03/24 07:03:44;;;;;;;;;;;1.20;98.00;;;;;;5091392;28;19969;-69
2021/03/24 07:06:27;;;;;;;;;;;1.40;98.00;;;;;;5097478;28;19918;-69
2021/03/24 07:09:07;;;;;;;;;;;1.60;98.00;;;;;;5076837;28;20007;-68
2021/03/24 07:11:39;;;;;;;;;;;1.90;98.00;;;;;;5059249;28;19918;-68
2021/03/24 07:14:19;;;;;;;;;;;2.10;98.00;;;;;;5076880;28;19908;-68
2021/03/24 07:16:50;;;;;;;;;;;2.30;98.00;;;;;;5085933;28;19947;-67
2021/03/24 07:19:18;;;;;;;;;;;2.60;98.00;;;;;;5076999;28;20280;-68
2021/03/24 07:21:59;;;;;;;;;;;2.80;97.80;;;;;;5059755;28;19923;-69
2021/03/24 07:24:44;;;;;;;;;;;3.00;97.60;;;;;;5080470;28;20280;-68
2021/03/24 07:27:13;;;;;;;;;;;3.30;97.20;;;;;;5080143;28;19913;-68
2021/03/24 07:29:38;;;;;;;;;;;3.50;96.90;;;;;;5058716;28;20214;-69
2021/03/24 07:32:10;;;;;;;;;;;3.70;96.40;;;;;;5078790;28;19988;-68
2021/03/24 07:34:35;;;;;;;;;;;4.00;95.80;;;;;;5069318;28;19952;-68
2021/03/24 07:37:19;;;;;;;;;;;4.30;95.30;;;;;;5093518;28;20023;-68
2021/03/24 07:39:48;;;;;;;;;;;4.60;95.20;;;;;;5094660;28;20009;-67
2021/03/24 07:42:28;;;;;;;;;;;4.80;94.80;;;;;;5096701;28;19912;-67
2021/03/24 07:44:54;;;;;;;;;;;5.00;94.10;;;;;;5091569;28;19920;-68
2021/03/24 07:47:26;;;;;;;;;;;5.20;91.90;;;;;;5096564;28;19912;-67
2021/03/24 07:50:03;;;;;;;;;;;5.40;90.80;;;;;;5062013;28;19978;-69
2021/03/24 07:52:52;;;;;;;;;;;5.70;90.40;;;;;;5075755;28;19916;-68
2021/03/24 07:55:30;;;;;;;;;;;6.00;87.30;;;;;;5080186;28;19912;-66
2021/03/24 07:58:11;;;;;;;;;;;6.20;86.50;;;;;;5093743;28;19916;-66
2021/03/24 08:00:45;;;;;;;;;;;6.40;86.30;;;;;;5094610;28;19935;-67
2021/03/24 08:03:11;;;;;;;;;;;6.50;87.10;;;;;;5076158;28;19912;-68
2021/03/24 08:05:55;;;;;;;;;;;6.20;87.20;;;;;;5081554;28;20208;-67
2021/03/24 08:08:43;;;;;;;;;;;5.70;88.60;;;;;;5089066;28;19916;-66
2021/03/24 08:11:19;;;;;;;;;;;5.20;89.70;;;;;;5083199;28;20010;-68
2021/03/24 08:13:52;;;;;;;;;;;5.10;90.80;;;;;;5077274;28;19917;-67
2021/03/24 08:16:36;;;;;;;;;;;5.10;91.10;;;;;;5077201;28;19973;-68
2021/03/24 08:19:20;;;;;;;;;;;5.20;91.00;;;;;;5077037;28;19936;-67
2021/03/24 08:22:03;;;;;;;;;;;5.20;90.50;;;;;;5075790;28;20294;-67
2021/03/24 08:24:55;;;;;;;;;;;5.60;90.00;;;;;;5073080;28;20203;-66
2021/03/24 08:27:38;;;;;;;;;;;5.90;89.00;;;;;;5055911;28;19908;-66
2021/03/24 08:30:03;;;;;;;;;;;7.30;86.70;;;;;;5070894;28;20217;-66
2021/03/24 08:32:38;;;;;;;;;;;9.00;81.50;;;;;;5079244;28;19912;-68
2021/03/24 08:35:24;;;;;;;;;;;10.20;78.40;;;;;;5096186;28;19955;-66
2021/03/24 08:38:03;;;;;;;;;;;12.10;72.80;;;;;;5091657;28;19913;-68
2021/03/24 08:40:46;;;;;;;;;;;13.60;69.00;;;;;;5075714;28;19924;-68
2021/03/24 08:43:12;;;;;;;;;;;15.10;65.40;;;;;;5076651;28;19923;-67
2021/03/24 08:45:38;;;;;;;;;;;15.90;62.20;;;;;;5075726;28;19912;-67
2021/03/24 08:48:07;;;;;;;;;;;15.80;59.80;;;;;;5089501;28;19912;-66
2021/03/24 08:50:36;;;;;;;;;;;15.50;60.70;;;;;;5093657;28;19920;-68
2021/03/24 08:53:10;;;;;;;;;;;15.90;60.40;;;;;;5074546;28;19996;-66
2021/03/24 08:55:36;;;;;;;;;;;15.60;59.80;;;;;;5077160;28;19966;-67
2021/03/24 08:58:13;;;;;;;;;;;15.10;60.40;;;;;;5090251;28;19916;-67
2021/03/24 09:00:57;;;;;;;;;;;15.00;61.70;;;;;;5076953;28;19916;-68
2021/03/24 09:03:29;;;;;;;;;;;15.30;62.00;;;;;;5076065;28;19942;-68
2021/03/24 09:06:00;;;;;;;;;;;14.80;62.00;;;;;;5078727;28;19908;-69
2021/03/24 09:08:28;;;;;;;;;;;14.80;62.70;;;;;;5091902;28;19942;-67
2021/03/24 09:11:12;;;;;;;;;;;14.70;63.70;;;;;;5077214;28;19920;-67
2021/03/24 09:13:43;;;;;;;;;;;15.40;62.90;;;;;;5075361;28;20305;-68
2021/03/24 09:16:09;;;;;;;;;;;16.30;60.90;;;;;;5082513;28;19917;-68
2021/03/24 09:18:54;;;;;;;;;;;16.00;60.90;;;;;;5087524;28;19919;-69
2021/03/24 09:21:26;;;;;;;;;;;16.00;60.70;;;;;;5064400;28;19917;-68
2021/03/24 09:24:00;;;;;;;;;;;15.70;61.30;;;;;;5084403;28;20276;-68
2021/03/24 09:26:40;;;;;;;;;;;15.20;61.60;;;;;;5093526;28;19919;-68
2021/03/24 09:29:08;;;;;;;;;;;13.80;64.00;;;;;;5079707;28;19913;-68
2021/03/24 09:31:40;;;;;;;;;;;13.90;64.80;;;;;;5080519;28;20045;-69
2021/03/24 09:34:23;;;;;;;;;;;14.40;63.20;;;;;;5098905;28;19914;-68
2021/03/24 09:36:52;;;;;;;;;;;15.00;62.60;;;;;;5079319;28;19912;-69
2021/03/24 09:39:23;;;;;;;;;;;15.20;62.00;;;;;;5098008;28;19923;-69
2021/03/24 09:41:59;;;;;;;;;;;15.00;62.00;;;;;;5077172;28;19919;-69
2021/03/24 09:44:47;;;;;;;;;;;15.30;62.30;;;;;;5099043;28;19950;-69
2021/03/24 09:47:18;;;;;;;;;;;15.20;62.00;;;;;;5098806;28;19912;-68
2021/03/24 09:49:45;;;;;;;;;;;16.00;61.00;;;;;;5093071;28;19924;-69
2021/03/24 09:52:22;;;;;;;;;;;16.30;60.30;;;;;;5093901;28;19920;-68
2021/03/24 09:54:57;;;;;;;;;;;16.30;60.00;;;;;;5077373;28;19920;-67
2021/03/24 09:57:25;;;;;;;;;;;16.10;60.90;;;;;;5078563;28;19929;-68
2021/03/24 09:59:55;;;;;;;;;;;16.40;60.70;;;;;;5078766;28;19908;-70
2021/03/24 10:02:34;;;;;;;;;;;16.40;60.30;;;;;;5095671;28;20431;-70
2021/03/24 10:05:03;;;;;;;;;;;16.30;60.50;;;;;;5079056;28;19938;-70
2021/03/24 10:07:30;;;;;;;;;;;15.90;61.50;;;;;;5078417;28;19920;-70
2021/03/24 10:10:05;;;;;;;;;;;15.80;60.60;;;;;;5085649;28;19916;-70
2021/03/24 10:12:32;;;;;;;;;;;14.90;62.40;;;;;;5092611;28;19928;-69
2021/03/24 10:15:16;;;;;;;;;;;15.00;63.80;;;;;;5079263;28;19909;-70
2021/03/24 10:17:47;;;;;;;;;;;15.50;62.40;;;;;;5084672;28;20286;-69
2021/03/24 10:20:31;;;;;;;;;;;16.50;61.00;;;;;;5084353;28;19997;-68
2021/03/24 10:23:06;;;;;;;;;;;16.60;59.70;;;;;;5077649;28;19908;-69
2021/03/24 10:25:35;;;;;;;;;;;16.00;61.40;;;;;;5086848;28;19979;-69
2021/03/24 10:28:05;;;;;;;;;;;15.60;62.90;;;;;;5095730;28;19912;-69
2021/03/24 10:30:34;;;;;;;;;;;15.60;62.20;;;;;;5079308;28;20297;-70
2021/03/24 10:33:08;;;;;;;;;;;15.70;62.10;;;;;;5081560;28;20224;-69
2021/03/24 10:35:36;;;;;;;;;;;15.40;62.10;;;;;;5097346;28;20293;-70
2021/03/24 10:38:17;;;;;;;;;;;15.40;63.90;;;;;;5092897;28;20222;-70
2021/03/24 10:40:44;;;;;;;;;;;16.20;61.50;;;;;;5077958;28;19920;-70
2021/03/24 10:43:16;;;;;;;;;;;16.00;60.70;;;;;;5078799;28;19912;-68
2021/03/24 10:45:44;;;;;;;;;;;16.10;61.10;;;;;;5077746;28;19916;-70
2021/03/24 10:48:16;;;;;;;;;;;16.20;61.50;;;;;;5079747;28;19916;-70
2021/03/24 10:50:51;;;;;;;;;;;16.30;61.60;;;;;;5091477;28;19920;-68
2021/03/24 10:53:23;;;;;;;;;;;16.30;61.00;;;;;;5076279;28;19932;-69
2021/03/24 10:56:00;;;;;;;;;;;16.50;61.30;;;;;;5078352;28;19966;-68
2021/03/24 10:58:29;;;;;;;;;;;16.80;60.60;;;;;;5079410;28;19952;-68
2021/03/24 11:01:09;;;;;;;;;;;17.70;60.00;;;;;;5089053;28;19964;-69
2021/03/24 11:03:55;;;;;;;;;;;17.40;59.10;;;;;;5092317;28;19916;-69
2021/03/24 11:06:24;;;;;;;;;;;17.20;60.00;;;;;;5036280;28;20351;-68
2021/03/24 11:09:16;;;;;;;;;;;16.50;61.30;;;;;;5076090;28;20011;-69
2021/03/24 11:11:44;;;;;;;;;;;16.30;62.60;;;;;;5077801;28;20301;-69
2021/03/24 11:14:13;;;;;;;;;;;17.20;60.90;;;;;;5088758;28;19962;-69
2021/03/24 11:16:46;;;;;;;;;;;17.70;59.70;;;;;;5087705;28;19996;-68
2021/03/24 11:19:12;;;;;;;;;;;17.60;59.30;;;;;;5091314;28;19912;-68
2021/03/24 11:21:37;;;;;;;;;;;17.10;59.80;;;;;;5097216;28;19934;-67
2021/03/24 11:24:17;;;;;;;;;;;16.60;61.90;;;;;;5088942;28;19912;-69
2021/03/24 11:27:01;;;;;;;;;;;16.50;62.30;;;;;;5093231;28;20220;-71
2021/03/24 11:29:28;;;;;;;;;;;16.40;62.20;;;;;;5085271;28;19917;-69
2021/03/24 11:32:11;;;;;;;;;;;16.10;62.20;;;;;;5085361;28;19970;-68
2021/03/24 11:34:43;;;;;;;;;;;16.20;62.70;;;;;;5077561;28;19919;-70
2021/03/24 11:37:30;;;;;;;;;;;16.10;62.50;;;;;;5084577;28;20316;-68
2021/03/24 11:40:03;;;;;;;;;;;16.40;62.20;;;;;;5079721;28;19944;-69
2021/03/24 11:42:31;;;;;;;;;;;16.80;60.70;;;;;;5091814;28;19927;-69
2021/03/24 11:44:56;;;;;;;;;;;16.90;60.60;;;;;;5094548;28;19916;-70
2021/03/24 11:47:40;;;;;;;;;;;16.40;61.60;;;;;;5081057;28;20258;-69
2021/03/24 11:50:16;;;;;;;;;;;17.00;61.50;;;;;;5080113;28;19928;-69
2021/03/24 11:52:47;;;;;;;;;;;17.40;61.00;;;;;;5078515;28;19964;-69
2021/03/24 11:55:31;;;;;;;;;;;17.20;60.20;;;;;;5086613;28;19938;-70
2021/03/24 11:58:03;;;;;;;;;;;16.90;60.90;;;;;;5091947;28;19912;-68
2021/03/24 12:00:29;;;;;;;;;;;16.10;62.50;;;;;;5094013;28;20035;-69
2021/03/24 12:02:55;;;;;;;;;;;16.30;62.30;;;;;;5084812;28;19970;-68
2021/03/24 12:05:20;;;;;;;;;;;16.50;61.90;;;;;;5087065;28;19955;-69
2021/03/24 12:07:49;;;;;;;;;;;16.40;61.60;;;;;;5078813;28;19934;-68
2021/03/24 12:10:33;;;;;;;;;;;16.50;61.60;;;;;;5080408;28;19973;-68
2021/03/24 12:13:02;;;;;;;;;;;16.70;61.60;;;;;;5095913;28;20312;-69
2021/03/24 12:15:31;;;;;;;;;;;17.00;59.50;;;;;;5079451;28;19922;-70
2021/03/24 12:18:23;;;;;;;;;;;17.30;61.40;;;;;;5084445;28;19919;-68
2021/03/24 12:20:51;;;;;;;;;;;17.20;59.50;;;;;;5079261;28;19912;-70
2021/03/24 12:23:16;;;;;;;;;;;16.60;62.00;;;;;;5078941;28;20360;-68
2021/03/24 12:25:47;;;;;;;;;;;17.00;60.40;;;;;;5083768;28;20011;-69
2021/03/24 12:28:13;;;;;;;;;;;17.40;59.20;;;;;;5067388;28;19912;-68
2021/03/24 12:30:44;;;;;;;;;;;17.10;60.40;;;;;;5080119;28;19920;-68
2021/03/24 12:33:29;;;;;;;;;;;16.60;61.00;;;;;;5082668;28;19983;-69
2021/03/24 12:36:07;;;;;;;;;;;16.50;61.60;;;;;;5088212;28;19913;-69
2021/03/24 12:38:45;;;;;;;;;;;16.00;61.90;;;;;;5081166;28;20240;-69
2021/03/24 12:41:10;;;;;;;;;;;15.70;61.70;;;;;;5095440;28;19912;-67
2021/03/24 12:43:40;;;;;;;;;;;15.30;63.30;;;;;;5095891;28;19918;-68
2021/03/24 12:46:07;;;;;;;;;;;15.50;64.10;;;;;;5087724;28;20267;-67
2021/03/24 12:48:35;;;;;;;;;;;15.50;64.50;;;;;;5095230;28;20028;-68
2021/03/24 12:51:03;;;;;;;;;;;16.00;62.80;;;;;;5095959;28;19920;-67
2021/03/24 12:53:33;;;;;;;;;;;16.30;62.90;;;;;;5080123;28;19924;-70
2021/03/24 12:56:21;;;;;;;;;;;16.80;60.80;;;;;;5095303;28;19987;-70
2021/03/24 12:58:52;;;;;;;;;;;16.70;60.10;;;;;;5076751;28;20300;-69
2021/03/24 13:01:24;;;;;;;;;;;16.40;60.70;;;;;;5104605;28;19919;-68
2021/03/24 13:04:01;;;;;;;;;;;16.50;62.50;;;;;;5113576;28;20003;-70
2021/03/24 13:06:39;;;;;;;;;;;16.40;60.40;;;;;;5100225;28;19940;-71
2021/03/24 13:09:18;;;;;;;;;;;15.80;61.60;;;;;;5097154;28;19947;-68
2021/03/24 13:11:43;;;;;;;;;;;15.40;62.80;;;;;;5094703;28;19951;-68
2021/03/24 13:14:27;;;;;;;;;;;15.10;63.50;;;;;;5065461;28;19959;-69
2021/03/24 13:17:02;;;;;;;;;;;15.10;63.20;;;;;;5079497;28;20317;-69
2021/03/24 13:19:39;;;;;;;;;;;15.10;63.50;;;;;;5085317;28;20305;-68
2021/03/24 13:22:07;;;;;;;;;;;15.40;63.00;;;;;;5079093;28;19914;-67
2021/03/24 13:24:51;;;;;;;;;;;15.60;64.10;;;;;;5078117;28;20213;-68
2021/03/24 13:27:35;;;;;;;;;;;15.90;62.60;;;;;;5079171;28;20007;-68
2021/03/24 13:30:05;;;;;;;;;;;15.70;62.10;;;;;;5079209;28;19920;-68
2021/03/24 13:32:30;;;;;;;;;;;15.60;62.90;;;;;;5078763;28;20337;-68
2021/03/24 13:35:18;;;;;;;;;;;15.40;61.80;;;;;;5078972;28;19959;-68
2021/03/24 13:37:46;;;;;;;;;;;15.40;62.70;;;;;;5078897;28;19913;-69
2021/03/24 13:40:11;;;;;;;;;;;15.60;62.30;;;;;;5077750;28;19916;-67
2021/03/24 13:42:41;;;;;;;;;;;15.70;61.10;;;;;;5079151;28;19934;-68
2021/03/24 13:45:10;;;;;;;;;;;15.90;60.90;;;;;;5087758;28;20201;-68
2021/03/24 13:47:55;;;;;;;;;;;15.60;61.20;;;;;;5098655;28;20038;-69
2021/03/24 13:50:29;;;;;;;;;;;15.80;61.70;;;;;;5098982;28;19931;-70
2021/03/24 13:52:57;;;;;;;;;;;16.10;60.10;;;;;;5096545;28;20003;-70
2021/03/24 13:55:42;;;;;;;;;;;16.10;60.20;;;;;;5098366;28;19919;-69
2021/03/24 13:58:07;;;;;;;;;;;16.40;61.10;;;;;;5098831;28;19912;-70
2021/03/24 14:00:38;;;;;;;;;;;16.30;59.60;;;;;;5098929;28;20049;-69
2021/03/24 14:03:14;;;;;;;;;;;16.40;61.30;;;;;;5098804;28;19908;-69
2021/03/24 14:05:57;;;;;;;;;;;17.00;60.10;;;;;;5096370;28;19915;-68
2021/03/24 14:08:29;;;;;;;;;;;17.60;59.00;;;;;;5097342;28;20263;-70
2021/03/24 14:11:00;;;;;;;;;;;17.30;58.10;;;;;;5097491;28;19912;-69
2021/03/24 14:13:44;;;;;;;;;;;17.40;57.40;;;;;;5091319;28;20305;-69
2021/03/24 14:16:10;;;;;;;;;;;16.80;59.10;;;;;;5092524;28;20057;-69
2021/03/24 14:18:41;;;;;;;;;;;16.40;58.60;;;;;;5089305;28;20336;-69
2021/03/24 14:21:15;;;;;;;;;;;15.80;61.10;;;;;;5093985;28;19912;-69
2021/03/24 14:24:00;;;;;;;;;;;15.80;59.50;;;;;;5058929;28;20340;-69
2021/03/24 14:26:30;;;;;;;;;;;15.90;60.60;;;;;;5082003;28;19909;-68
2021/03/24 14:29:05;;;;;;;;;;;16.30;59.50;;;;;;5098209;28;19976;-69
2021/03/24 14:31:35;;;;;;;;;;;16.70;60.30;;;;;;5093554;28;20268;-68
2021/03/24 14:34:14;;;;;;;;;;;17.20;58.80;;;;;;5088623;28;20301;-70
2021/03/24 14:36:42;;;;;;;;;;;17.30;57.20;;;;;;5081797;28;19937;-70
2021/03/24 14:39:08;;;;;;;;;;;16.80;58.80;;;;;;5096477;28;19948;-70
2021/03/24 14:41:44;;;;;;;;;;;17.00;58.80;;;;;;5084825;28;20348;-70
2021/03/24 14:44:25;;;;;;;;;;;16.90;57.90;;;;;;5097713;28;20031;-70
2021/03/24 14:47:10;;;;;;;;;;;17.30;57.50;;;;;;5061329;28;20301;-69
2021/03/24 14:49:44;;;;;;;;;;;17.60;56.90;;;;;;5078282;28;19920;-69
2021/03/24 14:52:23;;;;;;;;;;;17.90;56.30;;;;;;5088690;28;19973;-70